sensor_id;sensor_type;location;lat;lon;timestamp;temperature;humidity
22787;DHT22;63134;52.020;4.714;2023-08-07T00:01:35;15.30;96.70
22787;DHT22;63134;52.020;4.714;2023-08-07T00:04:21;15.30;95.60
22787;DHT22;63134;52.020;4.714;2023-08-07T00:07:07;15.30;95.60
22787;DHT22;63134;52.020;4.714;2023-08-07T00:09:52;15.30;95.50
22787;DHT22;63134;52.020;4.714;2023-08-07T00:12:38;15.30;95.50
22787;DHT22;63134;52.020;4.714;2023-08-07T00:15:24;15.40;95.40
22787;DHT22;63134;52.020;4.714;2023-08-07T00:18:09;15.50;95.00
22787;DHT22;63134;52.020;4.714;2023-08-07T00:20:56;15.50;94.70
22787;DHT22;63134;52.020;4.714;2023-08-07T00:23:41;15.50;94.50
22787;DHT22;63134;52.020;4.714;2023-08-07T00:26:27;15.50;94.40
22787;DHT22;63134;52.020;4.714;2023-08-07T00:29:13;15.50;94.10
22787;DHT22;63134;52.020;4.714;2023-08-07T00:31:58;15.50;94.00
22787;DHT22;63134;52.020;4.714;2023-08-07T00:34:44;15.60;93.50
22787;DHT22;63134;52.020;4.714;2023-08-07T00:37:30;15.60;92.90
22787;DHT22;63134;52.020;4.714;2023-08-07T00:40:17;15.50;92.60
22787;DHT22;63134;52.020;4.714;2023-08-07T00:43:02;15.50;92.70
22787;DHT22;63134;52.020;4.714;2023-08-07T00:45:48;15.50;92.60
22787;DHT22;63134;52.020;4.714;2023-08-07T00:48:33;15.60;92.60
22787;DHT22;63134;52.020;4.714;2023-08-07T00:51:19;15.60;91.60
22787;DHT22;63134;52.020;4.714;2023-08-07T00:54:06;15.50;91.50
22787;DHT22;63134;52.020;4.714;2023-08-07T00:56:53;15.30;91.60
22787;DHT22;63134;52.020;4.714;2023-08-07T00:59:39;15.20;92.00
22787;DHT22;63134;52.020;4.714;2023-08-07T01:02:25;15.10;92.40
22787;DHT22;63134;52.020;4.714;2023-08-07T01:05:11;15.10;92.60
22787;DHT22;63134;52.020;4.714;2023-08-07T01:07:57;15.10;92.70
22787;DHT22;63134;52.020;4.714;2023-08-07T01:11:20;15.00;92.90
22787;DHT22;63134;52.020;4.714;2023-08-07T01:17:19;15.00;93.00
22787;DHT22;63134;52.020;4.714;2023-08-07T01:20:06;15.00;92.90
22787;DHT22;63134;52.020;4.714;2023-08-07T01:22:54;14.90;93.20
22787;DHT22;63134;52.020;4.714;2023-08-07T01:25:40;14.90;93.50
22787;DHT22;63134;52.020;4.714;2023-08-07T01:28:37;14.90;93.80
22787;DHT22;63134;52.020;4.714;2023-08-07T01:31:24;15.00;94.10
22787;DHT22;63134;52.020;4.714;2023-08-07T01:34:12;15.00;94.20
22787;DHT22;63134;52.020;4.714;2023-08-07T01:37:01;15.10;94.10
22787;DHT22;63134;52.020;4.714;2023-08-07T01:39:48;15.10;94.10
22787;DHT22;63134;52.020;4.714;2023-08-07T01:42:35;15.20;93.80
22787;DHT22;63134;52.020;4.714;2023-08-07T01:45:28;15.30;93.60
22787;DHT22;63134;52.020;4.714;2023-08-07T01:48:14;15.40;93.20
22787;DHT22;63134;52.020;4.714;2023-08-07T01:51:05;15.40;92.90
22787;DHT22;63134;52.020;4.714;2023-08-07T01:53:50;15.40;92.70
22787;DHT22;63134;52.020;4.714;2023-08-07T01:56:36;15.40;92.60
22787;DHT22;63134;52.020;4.714;2023-08-07T01:59:21;15.40;92.80
22787;DHT22;63134;52.020;4.714;2023-08-07T02:02:07;15.40;92.70
22787;DHT22;63134;52.020;4.714;2023-08-07T02:04:52;15.40;92.70
22787;DHT22;63134;52.020;4.714;2023-08-07T02:07:38;15.50;92.40
22787;DHT22;63134;52.020;4.714;2023-08-07T02:10:23;15.50;92.30
22787;DHT22;63134;52.020;4.714;2023-08-07T02:13:09;15.50;92.30
22787;DHT22;63134;52.020;4.714;2023-08-07T02:15:54;15.40;92.40
22787;DHT22;63134;52.020;4.714;2023-08-07T02:18:40;15.50;92.50
22787;DHT22;63134;52.020;4.714;2023-08-07T02:21:25;15.60;92.20
22787;DHT22;63134;52.020;4.714;2023-08-07T02:24:17;15.70;92.00
22787;DHT22;63134;52.020;4.714;2023-08-07T02:27:05;15.70;91.60
22787;DHT22;63134;52.020;4.714;2023-08-07T02:29:51;15.70;91.30
22787;DHT22;63134;52.020;4.714;2023-08-07T02:32:36;15.80;90.90
22787;DHT22;63134;52.020;4.714;2023-08-07T02:35:22;15.80;90.70
22787;DHT22;63134;52.020;4.714;2023-08-07T02:38:09;15.90;90.60
22787;DHT22;63134;52.020;4.714;2023-08-07T02:40:55;15.90;90.20
22787;DHT22;63134;52.020;4.714;2023-08-07T02:43:40;15.90;89.70
22787;DHT22;63134;52.020;4.714;2023-08-07T02:46:28;15.90;90.00
22787;DHT22;63134;52.020;4.714;2023-08-07T02:49:13;15.90;90.20
22787;DHT22;63134;52.020;4.714;2023-08-07T02:51:59;15.90;90.30
22787;DHT22;63134;52.020;4.714;2023-08-07T02:54:45;16.00;90.10
22787;DHT22;63134;52.020;4.714;2023-08-07T02:57:30;16.10;89.40
22787;DHT22;63134;52.020;4.714;2023-08-07T03:00:16;15.80;89.80
22787;DHT22;63134;52.020;4.714;2023-08-07T03:03:02;15.70;90.60
22787;DHT22;63134;52.020;4.714;2023-08-07T03:05:51;15.50;91.10
22787;DHT22;63134;52.020;4.714;2023-08-07T03:08:37;15.40;91.70
22787;DHT22;63134;52.020;4.714;2023-08-07T03:11:25;15.30;92.20
22787;DHT22;63134;52.020;4.714;2023-08-07T03:14:11;15.30;92.60
22787;DHT22;63134;52.020;4.714;2023-08-07T03:16:56;15.30;93.10
22787;DHT22;63134;52.020;4.714;2023-08-07T03:19:43;15.30;93.10
22787;DHT22;63134;52.020;4.714;2023-08-07T03:22:30;15.30;93.20
22787;DHT22;63134;52.020;4.714;2023-08-07T03:25:16;15.30;93.40
22787;DHT22;63134;52.020;4.714;2023-08-07T03:28:01;15.40;93.70
22787;DHT22;63134;52.020;4.714;2023-08-07T03:30:47;15.40;93.80
22787;DHT22;63134;52.020;4.714;2023-08-07T03:33:33;15.40;93.90
22787;DHT22;63134;52.020;4.714;2023-08-07T03:36:19;15.50;94.10
22787;DHT22;63134;52.020;4.714;2023-08-07T03:39:07;15.50;94.20
22787;DHT22;63134;52.020;4.714;2023-08-07T03:41:54;15.50;94.10
22787;DHT22;63134;52.020;4.714;2023-08-07T03:44:41;15.60;94.20
22787;DHT22;63134;52.020;4.714;2023-08-07T03:47:26;15.60;94.10
22787;DHT22;63134;52.020;4.714;2023-08-07T03:50:13;15.70;94.00
22787;DHT22;63134;52.020;4.714;2023-08-07T03:52:58;15.70;94.10
22787;DHT22;63134;52.020;4.714;2023-08-07T03:55:50;15.80;93.90
22787;DHT22;63134;52.020;4.714;2023-08-07T03:58:39;15.80;94.00
22787;DHT22;63134;52.020;4.714;2023-08-07T04:01:24;15.90;93.50
22787;DHT22;63134;52.020;4.714;2023-08-07T04:04:10;15.70;92.90
22787;DHT22;63134;52.020;4.714;2023-08-07T04:06:56;15.60;93.50
22787;DHT22;63134;52.020;4.714;2023-08-07T04:09:42;15.50;94.00
22787;DHT22;63134;52.020;4.714;2023-08-07T04:12:27;15.40;94.30
22787;DHT22;63134;52.020;4.714;2023-08-07T04:15:13;15.40;94.60
22787;DHT22;63134;52.020;4.714;2023-08-07T04:18:00;15.40;94.80
22787;DHT22;63134;52.020;4.714;2023-08-07T04:20:50;15.40;95.10
22787;DHT22;63134;52.020;4.714;2023-08-07T04:23:37;15.40;95.20
22787;DHT22;63134;52.020;4.714;2023-08-07T04:26:26;15.30;95.40
22787;DHT22;63134;52.020;4.714;2023-08-07T04:29:12;15.30;95.50
22787;DHT22;63134;52.020;4.714;2023-08-07T04:31:58;15.40;95.70
22787;DHT22;63134;52.020;4.714;2023-08-07T04:34:44;15.40;95.60
22787;DHT22;63134;52.020;4.714;2023-08-07T04:37:29;15.40;95.60
22787;DHT22;63134;52.020;4.714;2023-08-07T04:40:15;15.40;95.70
22787;DHT22;63134;52.020;4.714;2023-08-07T04:43:01;15.30;95.60
22787;DHT22;63134;52.020;4.714;2023-08-07T04:45:47;15.40;95.50
22787;DHT22;63134;52.020;4.714;2023-08-07T04:48:33;15.50;95.40
22787;DHT22;63134;52.020;4.714;2023-08-07T04:51:19;15.50;94.90
22787;DHT22;63134;52.020;4.714;2023-08-07T04:54:04;15.50;94.80
22787;DHT22;63134;52.020;4.714;2023-08-07T04:56:50;15.60;94.90
22787;DHT22;63134;52.020;4.714;2023-08-07T04:59:35;15.60;94.40
22787;DHT22;63134;52.020;4.714;2023-08-07T05:02:21;15.60;94.10
22787;DHT22;63134;52.020;4.714;2023-08-07T05:05:06;15.60;94.10
22787;DHT22;63134;52.020;4.714;2023-08-07T05:07:55;15.70;94.00
22787;DHT22;63134;52.020;4.714;2023-08-07T05:10:40;15.70;93.90
22787;DHT22;63134;52.020;4.714;2023-08-07T05:13:26;15.70;93.60
22787;DHT22;63134;52.020;4.714;2023-08-07T05:16:11;15.70;93.60
22787;DHT22;63134;52.020;4.714;2023-08-07T05:18:57;15.70;92.80
22787;DHT22;63134;52.020;4.714;2023-08-07T05:21:42;15.50;92.50
22787;DHT22;63134;52.020;4.714;2023-08-07T05:24:28;15.40;92.60
22787;DHT22;63134;52.020;4.714;2023-08-07T05:27:14;15.40;92.70
22787;DHT22;63134;52.020;4.714;2023-08-07T05:29:59;15.30;93.00
22787;DHT22;63134;52.020;4.714;2023-08-07T05:32:48;15.40;93.20
22787;DHT22;63134;52.020;4.714;2023-08-07T05:35:34;15.30;93.70
22787;DHT22;63134;52.020;4.714;2023-08-07T05:38:19;15.30;94.10
22787;DHT22;63134;52.020;4.714;2023-08-07T05:41:05;15.40;94.20
22787;DHT22;63134;52.020;4.714;2023-08-07T05:43:50;15.40;94.60
22787;DHT22;63134;52.020;4.714;2023-08-07T05:46:36;15.40;94.70
22787;DHT22;63134;52.020;4.714;2023-08-07T05:49:21;15.50;94.90
22787;DHT22;63134;52.020;4.714;2023-08-07T05:52:10;15.60;94.80
22787;DHT22;63134;52.020;4.714;2023-08-07T05:54:55;15.60;95.10
22787;DHT22;63134;52.020;4.714;2023-08-07T05:57:41;15.70;95.30
22787;DHT22;63134;52.020;4.714;2023-08-07T06:00:27;15.80;95.00
22787;DHT22;63134;52.020;4.714;2023-08-07T06:03:13;15.80;94.80
22787;DHT22;63134;52.020;4.714;2023-08-07T06:05:59;15.80;94.70
22787;DHT22;63134;52.020;4.714;2023-08-07T06:08:44;15.60;94.30
22787;DHT22;63134;52.020;4.714;2023-08-07T06:11:30;15.60;94.00
22787;DHT22;63134;52.020;4.714;2023-08-07T06:14:15;15.30;94.40
22787;DHT22;63134;52.020;4.714;2023-08-07T06:17:01;15.30;94.40
22787;DHT22;63134;52.020;4.714;2023-08-07T06:19:48;15.20;94.50
22787;DHT22;63134;52.020;4.714;2023-08-07T06:22:33;15.10;94.90
22787;DHT22;63134;52.020;4.714;2023-08-07T06:25:19;15.10;95.30
22787;DHT22;63134;52.020;4.714;2023-08-07T06:28:05;15.10;95.80
22787;DHT22;63134;52.020;4.714;2023-08-07T06:30:50;15.10;95.80
22787;DHT22;63134;52.020;4.714;2023-08-07T06:33:36;15.20;96.10
22787;DHT22;63134;52.020;4.714;2023-08-07T06:36:22;15.30;96.20
22787;DHT22;63134;52.020;4.714;2023-08-07T06:39:10;15.30;96.30
22787;DHT22;63134;52.020;4.714;2023-08-07T06:41:55;15.30;96.30
22787;DHT22;63134;52.020;4.714;2023-08-07T06:44:47;15.30;96.30
22787;DHT22;63134;52.020;4.714;2023-08-07T06:47:33;15.20;96.40
22787;DHT22;63134;52.020;4.714;2023-08-07T06:50:18;15.20;96.50
22787;DHT22;63134;52.020;4.714;2023-08-07T06:53:04;15.10;96.50
22787;DHT22;63134;52.020;4.714;2023-08-07T06:55:49;15.10;96.60
22787;DHT22;63134;52.020;4.714;2023-08-07T06:58:35;15.10;96.70
22787;DHT22;63134;52.020;4.714;2023-08-07T07:01:20;15.20;96.90
22787;DHT22;63134;52.020;4.714;2023-08-07T07:04:06;15.30;97.00
22787;DHT22;63134;52.020;4.714;2023-08-07T07:06:52;15.30;96.90
22787;DHT22;63134;52.020;4.714;2023-08-07T07:09:39;15.40;97.30
22787;DHT22;63134;52.020;4.714;2023-08-07T07:12:27;15.70;96.70
22787;DHT22;63134;52.020;4.714;2023-08-07T07:15:13;15.80;96.40
22787;DHT22;63134;52.020;4.714;2023-08-07T07:17:58;16.00;96.30
22787;DHT22;63134;52.020;4.714;2023-08-07T07:20:45;16.10;95.90
22787;DHT22;63134;52.020;4.714;2023-08-07T07:23:31;16.20;94.90
22787;DHT22;63134;52.020;4.714;2023-08-07T07:26:16;16.20;93.90
22787;DHT22;63134;52.020;4.714;2023-08-07T07:29:02;16.30;93.10
22787;DHT22;63134;52.020;4.714;2023-08-07T07:31:47;16.30;92.90
22787;DHT22;63134;52.020;4.714;2023-08-07T07:34:38;16.50;92.20
22787;DHT22;63134;52.020;4.714;2023-08-07T07:37:24;16.60;91.10
22787;DHT22;63134;52.020;4.714;2023-08-07T07:40:10;16.60;89.40
22787;DHT22;63134;52.020;4.714;2023-08-07T07:42:55;16.70;89.40
22787;DHT22;63134;52.020;4.714;2023-08-07T07:45:41;16.70;87.50
22787;DHT22;63134;52.020;4.714;2023-08-07T07:48:27;16.90;87.00
22787;DHT22;63134;52.020;4.714;2023-08-07T07:51:12;17.10;83.20
22787;DHT22;63134;52.020;4.714;2023-08-07T07:54:01;17.20;81.40
22787;DHT22;63134;52.020;4.714;2023-08-07T07:56:59;17.10;80.50
22787;DHT22;63134;52.020;4.714;2023-08-07T07:59:45;17.20;79.50
22787;DHT22;63134;52.020;4.714;2023-08-07T08:02:30;17.30;78.40
22787;DHT22;63134;52.020;4.714;2023-08-07T08:05:16;17.30;78.60
22787;DHT22;63134;52.020;4.714;2023-08-07T08:08:01;17.50;78.90
22787;DHT22;63134;52.020;4.714;2023-08-07T08:10:47;17.60;77.50
22787;DHT22;63134;52.020;4.714;2023-08-07T08:13:33;17.70;77.90
22787;DHT22;63134;52.020;4.714;2023-08-07T08:16:20;17.80;76.90
22787;DHT22;63134;52.020;4.714;2023-08-07T08:19:09;17.90;75.50
22787;DHT22;63134;52.020;4.714;2023-08-07T08:21:55;18.00;73.80
22787;DHT22;63134;52.020;4.714;2023-08-07T08:24:43;18.10;73.80
22787;DHT22;63134;52.020;4.714;2023-08-07T08:27:29;18.30;71.80
22787;DHT22;63134;52.020;4.714;2023-08-07T08:30:15;18.40;71.20
22787;DHT22;63134;52.020;4.714;2023-08-07T08:33:00;18.30;70.70
22787;DHT22;63134;52.020;4.714;2023-08-07T08:35:46;18.20;70.50
22787;DHT22;63134;52.020;4.714;2023-08-07T08:38:32;18.30;69.70
22787;DHT22;63134;52.020;4.714;2023-08-07T08:41:19;18.20;69.60
22787;DHT22;63134;52.020;4.714;2023-08-07T08:44:05;18.20;69.50
22787;DHT22;63134;52.020;4.714;2023-08-07T08:46:51;18.20;70.30
22787;DHT22;63134;52.020;4.714;2023-08-07T08:49:47;18.30;70.20
22787;DHT22;63134;52.020;4.714;2023-08-07T08:52:36;18.40;70.50
22787;DHT22;63134;52.020;4.714;2023-08-07T08:55:23;18.40;69.90
22787;DHT22;63134;52.020;4.714;2023-08-07T08:58:08;18.60;68.20
22787;DHT22;63134;52.020;4.714;2023-08-07T09:00:54;18.70;68.60
22787;DHT22;63134;52.020;4.714;2023-08-07T09:03:40;18.90;66.70
22787;DHT22;63134;52.020;4.714;2023-08-07T09:06:27;19.10;66.00
22787;DHT22;63134;52.020;4.714;2023-08-07T09:09:13;19.10;65.90
22787;DHT22;63134;52.020;4.714;2023-08-07T09:12:01;19.20;66.00
22787;DHT22;63134;52.020;4.714;2023-08-07T09:14:52;19.40;64.20
22787;DHT22;63134;52.020;4.714;2023-08-07T09:17:40;19.60;65.20
22787;DHT22;63134;52.020;4.714;2023-08-07T09:20:32;19.70;65.10
22787;DHT22;63134;52.020;4.714;2023-08-07T09:23:17;19.60;63.90
22787;DHT22;63134;52.020;4.714;2023-08-07T09:26:04;19.40;64.40
22787;DHT22;63134;52.020;4.714;2023-08-07T09:28:51;19.50;65.40
22787;DHT22;63134;52.020;4.714;2023-08-07T09:31:38;19.50;65.00
22787;DHT22;63134;52.020;4.714;2023-08-07T09:34:24;19.60;64.70
22787;DHT22;63134;52.020;4.714;2023-08-07T09:37:09;20.00;65.40
22787;DHT22;63134;52.020;4.714;2023-08-07T09:39:55;20.30;63.70
22787;DHT22;63134;52.020;4.714;2023-08-07T09:42:41;20.20;62.70
22787;DHT22;63134;52.020;4.714;2023-08-07T09:45:30;19.90;62.50
22787;DHT22;63134;52.020;4.714;2023-08-07T09:48:27;19.80;62.70
22787;DHT22;63134;52.020;4.714;2023-08-07T09:51:13;19.90;63.40
22787;DHT22;63134;52.020;4.714;2023-08-07T09:53:59;19.90;63.00
22787;DHT22;63134;52.020;4.714;2023-08-07T09:56:46;19.80;62.60
22787;DHT22;63134;52.020;4.714;2023-08-07T09:59:33;19.90;63.00
22787;DHT22;63134;52.020;4.714;2023-08-07T10:02:19;20.00;62.40
22787;DHT22;63134;52.020;4.714;2023-08-07T10:05:11;20.00;62.00
22787;DHT22;63134;52.020;4.714;2023-08-07T10:07:58;19.90;62.00
22787;DHT22;63134;52.020;4.714;2023-08-07T10:10:46;20.00;62.40
22787;DHT22;63134;52.020;4.714;2023-08-07T10:13:36;20.00;61.20
22787;DHT22;63134;52.020;4.714;2023-08-07T10:16:26;19.90;59.90
22787;DHT22;63134;52.020;4.714;2023-08-07T10:19:13;19.80;59.70
22787;DHT22;63134;52.020;4.714;2023-08-07T10:21:58;19.70;60.80
22787;DHT22;63134;52.020;4.714;2023-08-07T10:24:48;19.60;60.40
22787;DHT22;63134;52.020;4.714;2023-08-07T10:27:38;19.40;61.30
22787;DHT22;63134;52.020;4.714;2023-08-07T10:30:24;19.40;61.10
22787;DHT22;63134;52.020;4.714;2023-08-07T10:33:12;19.50;63.00
22787;DHT22;63134;52.020;4.714;2023-08-07T10:35:58;19.50;62.70
22787;DHT22;63134;52.020;4.714;2023-08-07T10:39:09;19.40;62.50
22787;DHT22;63134;52.020;4.714;2023-08-07T10:41:55;19.40;61.00
22787;DHT22;63134;52.020;4.714;2023-08-07T10:44:48;19.60;60.00
22787;DHT22;63134;52.020;4.714;2023-08-07T10:47:34;19.80;58.90
22787;DHT22;63134;52.020;4.714;2023-08-07T10:50:27;20.00;58.50
22787;DHT22;63134;52.020;4.714;2023-08-07T10:53:32;20.00;58.80
22787;DHT22;63134;52.020;4.714;2023-08-07T10:56:19;20.10;58.80
22787;DHT22;63134;52.020;4.714;2023-08-07T10:59:14;20.10;58.90
22787;DHT22;63134;52.020;4.714;2023-08-07T11:02:02;20.10;59.20
22787;DHT22;63134;52.020;4.714;2023-08-07T11:04:53;20.10;59.10
22787;DHT22;63134;52.020;4.714;2023-08-07T11:07:40;20.20;59.10
22787;DHT22;63134;52.020;4.714;2023-08-07T11:10:30;20.40;59.30
22787;DHT22;63134;52.020;4.714;2023-08-07T11:13:15;20.60;59.00
22787;DHT22;63134;52.020;4.714;2023-08-07T11:16:05;20.80;58.90
22787;DHT22;63134;52.020;4.714;2023-08-07T11:18:50;21.00;57.40
22787;DHT22;63134;52.020;4.714;2023-08-07T11:21:38;21.00;57.50
22787;DHT22;63134;52.020;4.714;2023-08-07T11:24:23;21.10;57.50
22787;DHT22;63134;52.020;4.714;2023-08-07T11:27:11;21.40;57.10
22787;DHT22;63134;52.020;4.714;2023-08-07T11:29:57;21.90;56.10
22787;DHT22;63134;52.020;4.714;2023-08-07T11:32:42;22.30;53.20
22787;DHT22;63134;52.020;4.714;2023-08-07T11:35:29;22.50;51.90
22787;DHT22;63134;52.020;4.714;2023-08-07T11:38:32;22.70;51.30
22787;DHT22;63134;52.020;4.714;2023-08-07T11:41:18;22.60;50.50
22787;DHT22;63134;52.020;4.714;2023-08-07T11:44:04;22.80;51.10
22787;DHT22;63134;52.020;4.714;2023-08-07T11:46:53;23.10;50.30
22787;DHT22;63134;52.020;4.714;2023-08-07T11:49:39;23.50;49.20
22787;DHT22;63134;52.020;4.714;2023-08-07T11:52:24;23.50;49.10
22787;DHT22;63134;52.020;4.714;2023-08-07T11:55:10;23.80;47.70
22787;DHT22;63134;52.020;4.714;2023-08-07T11:57:55;24.20;46.70
22787;DHT22;63134;52.020;4.714;2023-08-07T12:00:43;24.60;44.40
22787;DHT22;63134;52.020;4.714;2023-08-07T12:03:32;25.10;44.10
22787;DHT22;63134;52.020;4.714;2023-08-07T12:06:19;25.60;42.80
22787;DHT22;63134;52.020;4.714;2023-08-07T12:09:05;25.90;41.70
22787;DHT22;63134;52.020;4.714;2023-08-07T12:11:58;26.00;42.10
22787;DHT22;63134;52.020;4.714;2023-08-07T12:14:44;26.60;42.00
22787;DHT22;63134;52.020;4.714;2023-08-07T12:17:32;26.90;40.40
22787;DHT22;63134;52.020;4.714;2023-08-07T12:20:22;26.70;40.90
22787;DHT22;63134;52.020;4.714;2023-08-07T12:23:15;27.20;41.50
22787;DHT22;63134;52.020;4.714;2023-08-07T12:26:03;27.70;42.20
22787;DHT22;63134;52.020;4.714;2023-08-07T12:28:49;27.70;42.00
22787;DHT22;63134;52.020;4.714;2023-08-07T12:31:35;27.40;42.30
22787;DHT22;63134;52.020;4.714;2023-08-07T12:34:23;27.90;42.40
22787;DHT22;63134;52.020;4.714;2023-08-07T12:37:12;28.60;41.20
22787;DHT22;63134;52.020;4.714;2023-08-07T12:39:58;29.50;40.40
22787;DHT22;63134;52.020;4.714;2023-08-07T12:43:04;29.80;36.70
22787;DHT22;63134;52.020;4.714;2023-08-07T12:45:50;29.80;34.80
22787;DHT22;63134;52.020;4.714;2023-08-07T12:48:37;30.10;35.30
22787;DHT22;63134;52.020;4.714;2023-08-07T12:51:24;30.40;34.70
22787;DHT22;63134;52.020;4.714;2023-08-07T12:54:09;30.80;34.50
22787;DHT22;63134;52.020;4.714;2023-08-07T12:56:55;30.60;33.30
22787;DHT22;63134;52.020;4.714;2023-08-07T12:59:41;30.60;34.40
22787;DHT22;63134;52.020;4.714;2023-08-07T13:02:26;30.70;33.10
22787;DHT22;63134;52.020;4.714;2023-08-07T13:05:13;29.90;33.60
22787;DHT22;63134;52.020;4.714;2023-08-07T13:07:59;30.00;35.60
22787;DHT22;63134;52.020;4.714;2023-08-07T13:10:45;30.40;35.30
22787;DHT22;63134;52.020;4.714;2023-08-07T13:13:34;30.10;34.60
22787;DHT22;63134;52.020;4.714;2023-08-07T13:16:20;30.10;36.40
22787;DHT22;63134;52.020;4.714;2023-08-07T13:19:05;29.70;35.50
22787;DHT22;63134;52.020;4.714;2023-08-07T13:21:51;28.60;37.40
22787;DHT22;63134;52.020;4.714;2023-08-07T13:24:36;28.90;38.80
22787;DHT22;63134;52.020;4.714;2023-08-07T13:27:21;29.70;37.30
22787;DHT22;63134;52.020;4.714;2023-08-07T13:30:07;30.50;35.40
22787;DHT22;63134;52.020;4.714;2023-08-07T13:32:53;30.10;35.90
22787;DHT22;63134;52.020;4.714;2023-08-07T13:35:39;28.90;36.70
22787;DHT22;63134;52.020;4.714;2023-08-07T13:38:24;27.40;39.10
22787;DHT22;63134;52.020;4.714;2023-08-07T13:41:10;26.10;43.00
22787;DHT22;63134;52.020;4.714;2023-08-07T13:43:57;24.40;48.80
22787;DHT22;63134;52.020;4.714;2023-08-07T13:46:45;23.30;53.10
22787;DHT22;63134;52.020;4.714;2023-08-07T13:49:31;22.40;56.20
22787;DHT22;63134;52.020;4.714;2023-08-07T13:52:17;23.50;59.70
22787;DHT22;63134;52.020;4.714;2023-08-07T13:55:02;24.40;55.70
22787;DHT22;63134;52.020;4.714;2023-08-07T13:57:48;23.60;54.00
22787;DHT22;63134;52.020;4.714;2023-08-07T14:00:34;22.80;55.80
22787;DHT22;63134;52.020;4.714;2023-08-07T14:03:21;22.10;56.60
22787;DHT22;63134;52.020;4.714;2023-08-07T14:06:06;21.50;57.60
22787;DHT22;63134;52.020;4.714;2023-08-07T14:08:52;20.60;61.70
22787;DHT22;63134;52.020;4.714;2023-08-07T14:11:38;19.70;66.30
22787;DHT22;63134;52.020;4.714;2023-08-07T14:14:26;19.20;69.90
22787;DHT22;63134;52.020;4.714;2023-08-07T14:17:14;18.80;72.30
22787;DHT22;63134;52.020;4.714;2023-08-07T14:20:00;18.60;74.10
22787;DHT22;63134;52.020;4.714;2023-08-07T14:22:45;18.50;76.20
22787;DHT22;63134;52.020;4.714;2023-08-07T14:25:31;18.80;77.70
22787;DHT22;63134;52.020;4.714;2023-08-07T14:28:17;19.10;77.80
22787;DHT22;63134;52.020;4.714;2023-08-07T14:31:06;20.60;82.00
22787;DHT22;63134;52.020;4.714;2023-08-07T14:34:06;20.60;75.20
22787;DHT22;63134;52.020;4.714;2023-08-07T14:36:52;20.10;75.10
22787;DHT22;63134;52.020;4.714;2023-08-07T14:39:39;19.80;76.30
22787;DHT22;63134;52.020;4.714;2023-08-07T14:42:25;19.50;77.10
22787;DHT22;63134;52.020;4.714;2023-08-07T14:45:11;19.50;77.70
22787;DHT22;63134;52.020;4.714;2023-08-07T14:47:56;19.60;76.70
22787;DHT22;63134;52.020;4.714;2023-08-07T14:50:42;19.50;77.90
22787;DHT22;63134;52.020;4.714;2023-08-07T14:53:27;19.90;78.70
22787;DHT22;63134;52.020;4.714;2023-08-07T14:56:16;23.10;78.70
22787;DHT22;63134;52.020;4.714;2023-08-07T14:59:02;23.00;68.60
22787;DHT22;63134;52.020;4.714;2023-08-07T15:01:48;24.20;71.90
22787;DHT22;63134;52.020;4.714;2023-08-07T15:04:33;25.40;63.10
22787;DHT22;63134;52.020;4.714;2023-08-07T15:07:19;24.50;61.30
22787;DHT22;63134;52.020;4.714;2023-08-07T15:10:05;26.30;59.00
22787;DHT22;63134;52.020;4.714;2023-08-07T15:12:50;26.40;50.80
22787;DHT22;63134;52.020;4.714;2023-08-07T15:15:36;27.40;50.10
22787;DHT22;63134;52.020;4.714;2023-08-07T15:18:21;27.70;48.30
22787;DHT22;63134;52.020;4.714;2023-08-07T15:21:09;27.50;47.50
22787;DHT22;63134;52.020;4.714;2023-08-07T15:23:55;28.30;46.70
22787;DHT22;63134;52.020;4.714;2023-08-07T15:26:41;29.80;45.80
22787;DHT22;63134;52.020;4.714;2023-08-07T15:29:27;29.00;42.60
22787;DHT22;63134;52.020;4.714;2023-08-07T15:32:12;28.30;42.70
22787;DHT22;63134;52.020;4.714;2023-08-07T15:35:04;27.40;44.80
22787;DHT22;63134;52.020;4.714;2023-08-07T15:37:50;27.00;46.50
22787;DHT22;63134;52.020;4.714;2023-08-07T15:40:40;26.80;46.50
22787;DHT22;63134;52.020;4.714;2023-08-07T15:43:25;27.30;45.90
22787;DHT22;63134;52.020;4.714;2023-08-07T15:46:10;27.90;44.50
22787;DHT22;63134;52.020;4.714;2023-08-07T15:48:56;28.30;42.70
22787;DHT22;63134;52.020;4.714;2023-08-07T15:51:41;28.10;42.80
22787;DHT22;63134;52.020;4.714;2023-08-07T15:54:27;29.50;42.00
22787;DHT22;63134;52.020;4.714;2023-08-07T15:57:12;28.80;41.40
22787;DHT22;63134;52.020;4.714;2023-08-07T15:59:58;27.70;43.20
22787;DHT22;63134;52.020;4.714;2023-08-07T16:02:44;28.30;43.20
22787;DHT22;63134;52.020;4.714;2023-08-07T16:05:34;28.20;42.60
22787;DHT22;63134;52.020;4.714;2023-08-07T16:08:20;29.30;41.80
22787;DHT22;63134;52.020;4.714;2023-08-07T16:11:06;29.50;40.60
22787;DHT22;63134;52.020;4.714;2023-08-07T16:13:51;30.10;41.40
22787;DHT22;63134;52.020;4.714;2023-08-07T16:16:42;30.40;40.40
22787;DHT22;63134;52.020;4.714;2023-08-07T16:19:29;31.80;40.40
22787;DHT22;63134;52.020;4.714;2023-08-07T16:22:15;30.30;38.90
22787;DHT22;63134;52.020;4.714;2023-08-07T16:25:01;29.00;41.40
22787;DHT22;63134;52.020;4.714;2023-08-07T16:27:47;28.40;42.00
22787;DHT22;63134;52.020;4.714;2023-08-07T16:30:37;28.00;43.60
22787;DHT22;63134;52.020;4.714;2023-08-07T16:33:23;27.20;44.70
22787;DHT22;63134;52.020;4.714;2023-08-07T16:36:08;26.80;46.60
22787;DHT22;63134;52.020;4.714;2023-08-07T16:38:54;27.20;47.60
22787;DHT22;63134;52.020;4.714;2023-08-07T16:41:39;29.00;44.90
22787;DHT22;63134;52.020;4.714;2023-08-07T16:44:30;28.60;43.40
22787;DHT22;63134;52.020;4.714;2023-08-07T16:47:16;29.00;43.60
22787;DHT22;63134;52.020;4.714;2023-08-07T16:50:01;29.50;41.40
22787;DHT22;63134;52.020;4.714;2023-08-07T16:52:47;28.10;41.90
22787;DHT22;63134;52.020;4.714;2023-08-07T16:55:32;27.10;44.00
22787;DHT22;63134;52.020;4.714;2023-08-07T16:58:19;27.90;44.90
22787;DHT22;63134;52.020;4.714;2023-08-07T17:01:05;26.90;44.20
22787;DHT22;63134;52.020;4.714;2023-08-07T17:03:50;26.80;46.30
22787;DHT22;63134;52.020;4.714;2023-08-07T17:06:38;26.00;45.80
22787;DHT22;63134;52.020;4.714;2023-08-07T17:09:27;25.20;47.70
22787;DHT22;63134;52.020;4.714;2023-08-07T17:12:17;26.30;48.30
22787;DHT22;63134;52.020;4.714;2023-08-07T17:15:05;26.00;47.00
22787;DHT22;63134;52.020;4.714;2023-08-07T17:17:51;25.90;48.10
22787;DHT22;63134;52.020;4.714;2023-08-07T17:20:36;27.50;46.90
22787;DHT22;63134;52.020;4.714;2023-08-07T17:23:22;28.70;45.00
22787;DHT22;63134;52.020;4.714;2023-08-07T17:26:08;29.60;43.80
22787;DHT22;63134;52.020;4.714;2023-08-07T17:28:53;30.90;41.70
22787;DHT22;63134;52.020;4.714;2023-08-07T17:31:42;31.90;39.90
22787;DHT22;63134;52.020;4.714;2023-08-07T17:34:27;31.90;37.70
22787;DHT22;63134;52.020;4.714;2023-08-07T17:37:13;31.20;40.40